Time;durP1;ratioP1;P1;durP2;ratioP2;P2;SDS_P1;SDS_P2;PMS_P1;PMS_P2;Temp;Humidity;BMP_temperature;BMP_pressure;BME280_temperature;BME280_humidity;BME280_pressure;Samples;Min_cycle;Max_cycle;Signal;HPM_P1;HPM_P2
2023/08/31 00:00:55;;;;;;;9.25;3.13;;;;;;;;;;5015353;28;20148;-78
2023/08/31 00:03:21;;;;;;;10.05;3.67;;;;;;;;;;5016449;28;20189;-78
2023/08/31 00:05:51;;;;;;;10.93;3.50;;;;;;;;;;5015569;28;20123;-79
2023/08/31 00:08:17;;;;;;;13.25;3.90;;;;;;;;;;5016686;28;20057;-78
2023/08/31 00:10:43;;;;;;;7.95;3.40;;;;;;;;;;5000626;28;20103;-77
2023/08/31 00:13:10;;;;;;;11.07;2.97;;;;;;;;;;5016338;28;20175;-78
2023/08/31 00:15:36;;;;;;;6.93;3.00;;;;;;;;;;5016476;28;20049;-78
2023/08/31 00:18:06;;;;;;;11.57;2.85;;;9.50;99.90;;;;;;5015749;28;20057;-78
2023/08/31 00:20:33;;;;;;;8.25;3.03;;;;;;;;;;5016112;28;20058;-79
2023/08/31 00:22:59;;;;;;;7.13;2.67;;;;;;;;;;5016253;28;20057;-79
2023/08/31 00:25:25;;;;;;;13.15;3.75;;;;;;;;;;5015850;28;20128;-79
2023/08/31 00:27:52;;;;;;;6.65;2.70;;;;;;;;;;5015780;28;20077;-78
2023/08/31 00:30:18;;;;;;;11.02;2.15;;;;;;;;;;5000565;28;20057;-79
2023/08/31 00:32:47;;;;;;;5.07;2.05;;;;;;;;;;5017665;28;20053;-81
2023/08/31 00:35:13;;;;;;;10.30;2.75;;;;;;;;;;5017363;28;20132;-79
2023/08/31 00:37:39;;;;;;;6.85;2.60;;;;;;;;;;5017684;28;20058;-79
2023/08/31 00:40:06;;;;;;;6.95;3.20;;;;;;;;;;5017476;28;20045;-80
2023/08/31 00:42:33;;;;;;;6.68;2.42;;;;;;;;;;5018337;28;20121;-78
2023/08/31 00:44:59;;;;;;;7.93;3.03;;;;;;;;;;5018442;28;20150;-78
2023/08/31 00:47:25;;;;;;;12.85;3.15;;;;;;;;;;5001453;28;20053;-79
2023/08/31 00:49:51;;;;;;;8.27;3.60;;;;;;;;;;5011361;28;20131;-79
2023/08/31 00:52:19;;;;;;;9.63;3.33;;;9.20;99.90;;;;;;4999824;28;20087;-81
2023/08/31 00:54:47;;;;;;;8.68;4.03;;;9.20;99.90;;;;;;4998710;28;20041;-78
2023/08/31 00:57:13;;;;;;;13.55;3.80;;;;;;;;;;5015453;28;20049;-78
2023/08/31 00:59:39;;;;;;;9.90;3.55;;;;;;;;;;5015664;28;20054;-81
2023/08/31 01:02:06;;;;;;;10.77;3.95;;;;;;;;;;4998838;28;20053;-80
2023/08/31 01:04:53;;;;;;;14.25;4.07;;;9.20;99.90;;;;;;5015520;28;20134;-79
2023/08/31 01:07:30;;;;;;;11.90;4.00;;;9.10;99.90;;;;;;5011240;28;20053;-79
2023/08/31 01:10:17;;;;;;;14.15;4.05;;;9.20;99.90;;;;;;4998788;28;20053;-78
2023/08/31 01:12:49;;;;;;;11.60;3.92;;;9.10;99.90;;;;;;5014746;28;20085;-79
2023/08/31 01:15:15;;;;;;;15.82;4.18;;;;;;;;;;5014813;28;20049;-77
2023/08/31 01:17:50;;;;;;;14.18;4.47;;;9.10;99.90;;;;;;4997491;28;20050;-79
2023/08/31 01:20:21;;;;;;;10.75;3.88;;;9.10;99.90;;;;;;5013608;28;20062;-79
2023/08/31 01:22:55;;;;;;;7.55;3.28;;;9.10;99.90;;;;;;4997778;28;20065;-81
2023/08/31 01:25:22;;;;;;;10.25;4.07;;;;;;;;;;4998229;28;20048;-80
2023/08/31 01:27:48;;;;;;;9.27;3.47;;;;;;;;;;5014108;28;20053;-81
2023/08/31 01:30:14;;;;;;;8.50;3.47;;;;;;;;;;5014702;28;20093;-81
2023/08/31 01:32:47;;;;;;;12.70;4.57;;;9.20;99.90;;;;;;5014365;28;20304;-79
2023/08/31 01:35:16;;;;;;;14.80;3.97;;;9.00;99.90;;;;;;4993028;28;20494;-80
2023/08/31 01:37:51;;;;;;;15.77;4.15;;;9.00;99.90;;;;;;5014843;28;20049;-79
2023/08/31 01:40:25;;;;;;;10.82;4.63;;;8.90;99.90;;;;;;5014902;28;20049;-78
2023/08/31 01:42:51;;;;;;;8.70;3.50;;;;;;;;;;5047323;28;20080;-84
2023/08/31 01:45:22;;;;;;;11.02;3.25;;;8.90;99.90;;;;;;4998686;28;20144;-78
2023/08/31 01:47:49;;;;;;;14.38;4.15;;;;;;;;;;5013460;28;20060;-78
2023/08/31 01:50:15;;;;;;;8.98;4.28;;;;;;;;;;5030396;28;20072;-78
2023/08/31 01:52:41;;;;;;;7.88;3.88;;;;;;;;;;5013968;28;20053;-77
2023/08/31 01:55:07;;;;;;;10.57;3.50;;;;;;;;;;5013505;28;20045;-79
2023/08/31 01:57:33;;;;;;;9.65;3.70;;;;;;;;;;5014033;28;20060;-78
2023/08/31 02:00:00;;;;;;;10.63;3.90;;;;;;;;;;5014675;28;20052;-78
2023/08/31 02:02:26;;;;;;;15.90;4.47;;;;;;;;;;4997840;28;20946;-79
2023/08/31 02:04:52;;;;;;;12.75;4.25;;;;;;;;;;4997760;28;20552;-78
2023/08/31 02:07:19;;;;;;;10.95;4.28;;;;;;;;;;5014528;28;20045;-81
2023/08/31 02:09:45;;;;;;;12.75;4.57;;;;;;;;;;5014095;28;20179;-76
2023/08/31 02:12:11;;;;;;;11.82;4.43;;;;;;;;;;5013552;28;20069;-79
2023/08/31 02:14:37;;;;;;;10.65;4.43;;;;;;;;;;5013959;28;20085;-79
2023/08/31 02:17:04;;;;;;;12.23;4.20;;;;;;;;;;5030744;28;20049;-80
2023/08/31 02:19:30;;;;;;;10.27;4.47;;;;;;;;;;5010741;28;20053;-81
2023/08/31 02:21:56;;;;;;;10.60;4.20;;;;;;;;;;5012689;28;20058;-77
2023/08/31 02:24:22;;;;;;;9.23;4.20;;;;;;;;;;4996717;28;20068;-80
2023/08/31 02:26:49;;;;;;;10.02;3.92;;;8.80;99.90;;;;;;5013373;28;20052;-78
2023/08/31 02:29:15;;;;;;;11.25;3.67;;;;;;;;;;5013343;28;20099;-78
2023/08/31 02:31:41;;;;;;;13.38;4.78;;;;;;;;;;4995429;28;20131;-78
2023/08/31 02:34:07;;;;;;;13.38;3.95;;;;;;;;;;5012518;28;20049;-78
2023/08/31 02:36:34;;;;;;;11.95;4.57;;;;;;;;;;5012776;28;20049;-79
2023/08/31 02:39:00;;;;;;;11.20;5.22;;;;;;;;;;4998064;28;20069;-78
2023/08/31 02:41:26;;;;;;;15.35;5.13;;;;;;;;;;5014503;28;20049;-79
2023/08/31 02:43:52;;;;;;;17.60;5.40;;;;;;;;;;5014121;28;20964;-81
2023/08/31 02:46:19;;;;;;;14.07;4.68;;;;;;;;;;5015351;28;20128;-78
2023/08/31 02:48:45;;;;;;;12.90;4.95;;;;;;;;;;4997352;28;20080;-77
2023/08/31 02:51:11;;;;;;;11.95;5.50;;;;;;;;;;5014923;28;20084;-79
2023/08/31 02:53:37;;;;;;;15.20;5.50;;;;;;;;;;5012458;28;20048;-81
2023/08/31 02:56:03;;;;;;;15.65;5.78;;;;;;;;;;5013604;28;20597;-81
2023/08/31 02:58:30;;;;;;;17.98;6.43;;;;;;;;;;5012881;28;20053;-78
2023/08/31 03:00:57;;;;;;;14.65;6.63;;;;;;;;;;5013287;28;20057;-78
2023/08/31 03:03:23;;;;;;;18.77;7.20;;;;;;;;;;4996824;28;20053;-78
2023/08/31 03:05:49;;;;;;;16.55;6.80;;;;;;;;;;5012970;28;20104;-77
2023/08/31 03:08:15;;;;;;;18.00;6.47;;;;;;;;;;5012804;28;20050;-76
2023/08/31 03:10:41;;;;;;;19.80;7.10;;;;;;;;;;5012138;28;20136;-80
2023/08/31 03:13:07;;;;;;;14.68;7.30;;;;;;;;;;5011831;28;20637;-79
2023/08/31 03:15:34;;;;;;;22.17;8.75;;;;;;;;;;5009794;28;20455;-78
2023/08/31 03:18:00;;;;;;;24.13;8.57;;;;;;;;;;5028199;28;20085;-76
2023/08/31 03:20:26;;;;;;;16.17;7.53;;;;;;;;;;5015162;28;20064;-77
2023/08/31 03:22:52;;;;;;;21.42;8.48;;;;;;;;;;4997835;28;20139;-77
2023/08/31 03:25:18;;;;;;;15.93;7.75;;;;;;;;;;5014206;28;20547;-80
2023/08/31 03:27:44;;;;;;;16.23;7.38;;;;;;;;;;4998083;28;20952;-79
2023/08/31 03:30:11;;;;;;;19.23;8.63;;;;;;;;;;5014799;28;20069;-82
2023/08/31 03:32:37;;;;;;;15.95;8.27;;;;;;;;;;5007258;28;20123;-79
2023/08/31 03:35:07;;;;;;;20.98;8.20;;;8.30;99.90;;;;;;4999209;28;20046;-79
2023/08/31 03:37:33;;;;;;;16.23;7.75;;;;;;;;;;5046519;28;20049;-79
2023/08/31 03:39:59;;;;;;;18.23;8.68;;;;;;;;;;4996629;28;20111;-78
2023/08/31 03:42:26;;;;;;;13.73;7.97;;;;;;;;;;5015845;28;20049;-77
2023/08/31 03:44:52;;;;;;;18.83;8.48;;;;;;;;;;5016364;28;20060;-77
2023/08/31 03:47:18;;;;;;;16.85;8.85;;;;;;;;;;5015070;28;20779;-77
2023/08/31 03:49:44;;;;;;;19.15;9.27;;;;;;;;;;5015986;28;20064;-77
2023/08/31 03:52:10;;;;;;;18.42;10.18;;;;;;;;;;4999991;28;20053;-79
2023/08/31 03:54:36;;;;;;;14.82;8.85;;;;;;;;;;5020160;28;20077;-81
2023/08/31 03:57:02;;;;;;;26.45;10.75;;;;;;;;;;5016643;28;20494;-80
2023/08/31 03:59:28;;;;;;;20.88;10.00;;;;;;;;;;5017107;28;20088;-79
2023/08/31 04:01:54;;;;;;;21.98;10.50;;;;;;;;;;5016778;28;20053;-79
2023/08/31 04:04:20;;;;;;;16.00;10.23;;;;;;;;;;5018616;28;20055;-79
2023/08/31 04:06:46;;;;;;;19.08;10.30;;;;;;;;;;5016465;28;20144;-78
2023/08/31 04:09:12;;;;;;;21.50;11.45;;;;;;;;;;5016168;28;20049;-76
2023/08/31 04:11:38;;;;;;;18.67;11.27;;;;;;;;;;5020940;28;20053;-76
2023/08/31 04:14:04;;;;;;;26.10;11.70;;;;;;;;;;5015964;28;20052;-77
2023/08/31 04:16:30;;;;;;;31.63;13.40;;;;;;;;;;5018086;28;20049;-81
2023/08/31 04:18:57;;;;;;;23.92;12.13;;;;;;;;;;5014836;28;20075;-79
2023/08/31 04:21:23;;;;;;;26.48;13.00;;;;;;;;;;5014548;28;20140;-78
2023/08/31 04:23:49;;;;;;;30.92;14.20;;;;;;;;;;5014837;28;20110;-78
2023/08/31 04:26:17;;;;;;;29.67;12.73;;;;;;;;;;5014600;28;20049;-79
2023/08/31 04:28:43;;;;;;;32.50;13.90;;;9.50;99.90;;;;;;5013966;28;20079;-78
2023/08/31 04:31:09;;;;;;;28.80;13.35;;;;;;;;;;5013959;28;20057;-76
2023/08/31 04:33:36;;;;;;;32.35;13.95;;;;;;;;;;5013501;28;20044;-78
2023/08/31 04:36:03;;;;;;;27.33;13.52;;;;;;;;;;5015219;28;20053;-78
2023/08/31 04:38:29;;;;;;;23.20;12.73;;;;;;;;;;5014917;28;20049;-76
2023/08/31 04:40:59;;;;;;;24.13;11.43;;;9.50;99.90;;;;;;5014771;28;20050;-78
2023/08/31 04:43:25;;;;;;;22.17;13.30;;;;;;;;;;5014762;28;20981;-79
2023/08/31 04:45:54;;;;;;;23.63;12.40;;;9.50;99.90;;;;;;5015194;28;20049;-79
2023/08/31 04:48:21;;;;;;;31.35;14.13;;;;;;;;;;5013048;28;20891;-77
2023/08/31 04:50:47;;;;;;;23.40;13.90;;;;;;;;;;5014350;28;20415;-76
2023/08/31 04:53:13;;;;;;;25.85;12.23;;;;;;;;;;5009315;28;20041;-76
2023/08/31 04:55:39;;;;;;;21.17;11.95;;;;;;;;;;4999193;28;20061;-77
2023/08/31 04:58:05;;;;;;;23.52;13.38;;;;;;;;;;5015205;28;20144;-77
2023/08/31 05:00:32;;;;;;;25.45;12.65;;;;;;;;;;5015464;28;20102;-76
2023/08/31 05:02:58;;;;;;;27.00;12.95;;;;;;;;;;5015422;28;20060;-78
2023/08/31 05:05:24;;;;;;;28.42;14.52;;;;;;;;;;5015469;28;20752;-75
2023/08/31 05:07:50;;;;;;;26.60;12.40;;;;;;;;;;5032007;28;20153;-78
2023/08/31 05:10:16;;;;;;;35.13;14.40;;;;;;;;;;4998463;28;20072;-80
2023/08/31 05:12:42;;;;;;;23.73;13.05;;;;;;;;;;5014571;28;20148;-79
2023/08/31 05:15:09;;;;;;;18.50;12.20;;;;;;;;;;5013458;28;20820;-78
2023/08/31 05:17:35;;;;;;;19.13;12.35;;;;;;;;;;4993103;28;20049;-81
2023/08/31 05:20:04;;;;;;;21.77;12.15;;;;;;;;;;5012871;28;20083;-77
2023/08/31 05:22:30;;;;;;;18.38;11.60;;;;;;;;;;5016239;28;20164;-79
2023/08/31 05:24:56;;;;;;;27.05;13.43;;;;;;;;;;5014387;28;20052;-78
2023/08/31 05:27:22;;;;;;;17.20;10.02;;;;;;;;;;5002775;28;20045;-77
2023/08/31 05:29:49;;;;;;;24.80;11.88;;;;;;;;;;4996991;28;20148;-78
2023/08/31 05:32:15;;;;;;;23.83;11.20;;;;;;;;;;4998409;28;20126;-79
2023/08/31 05:34:41;;;;;;;28.63;14.10;;;;;;;;;;5013905;28;20041;-77
2023/08/31 05:37:07;;;;;;;20.65;10.43;;;;;;;;;;5014571;28;20049;-78
2023/08/31 05:39:34;;;;;;;21.83;12.43;;;;;;;;;;5014110;28;20088;-77
2023/08/31 05:42:00;;;;;;;18.08;10.65;;;;;;;;;;4997756;28;20057;-77
2023/08/31 05:44:26;;;;;;;22.05;11.25;;;;;;;;;;5012932;28;20071;-78
2023/08/31 05:46:52;;;;;;;15.80;10.00;;;;;;;;;;5012806;28;20159;-78
2023/08/31 05:49:18;;;;;;;21.73;10.38;;;;;;;;;;5009226;28;20046;-78
2023/08/31 05:51:44;;;;;;;18.23;10.65;;;;;;;;;;4997542;28;20053;-77
2023/08/31 05:54:13;;;;;;;19.50;11.27;;;;;;;;;;5019486;28;20044;-77
2023/08/31 05:56:39;;;;;;;17.90;11.23;;;11.60;99.90;;;;;;5018411;28;20052;-77
2023/08/31 05:59:06;;;;;;;16.60;10.38;;;11.80;99.90;;;;;;5011699;28;20128;-80
2023/08/31 06:01:32;;;;;;;18.75;10.10;;;;;;;;;;5028845;28;20068;-77
2023/08/31 06:03:58;;;;;;;17.55;9.63;;;;;;;;;;5013030;28;20507;-80
2023/08/31 06:06:24;;;;;;;13.20;9.20;;;;;;;;;;5013472;28;20049;-79
2023/08/31 06:08:50;;;;;;;9.02;6.57;;;;;;;;;;5013899;28;20053;-78
2023/08/31 06:11:16;;;;;;;7.13;5.78;;;;;;;;;;5013403;28;20601;-79
2023/08/31 06:13:43;;;;;;;8.13;4.35;;;;;;;;;;5049252;28;20042;-78
2023/08/31 06:16:09;;;;;;;5.20;2.83;;;;;;;;;;5023172;28;20079;-78
2023/08/31 06:18:35;;;;;;;5.20;2.30;;;;;;;;;;5014592;28;20064;-79
2023/08/31 06:21:01;;;;;;;3.40;1.48;;;;;;;;;;5013702;28;20455;-79
2023/08/31 06:23:27;;;;;;;2.97;1.27;;;;;;;;;;5013311;28;20061;-77
2023/08/31 06:25:53;;;;;;;5.15;1.20;;;;;;;;;;4998242;28;20053;-79
2023/08/31 06:28:19;;;;;;;4.07;1.00;;;;;;;;;;4998237;28;20065;-81
2023/08/31 06:30:47;;;;;;;3.17;0.95;;;;;;;;;;5013901;28;20060;-79
2023/08/31 06:33:14;;;;;;;2.30;0.80;;;21.70;99.90;;;;;;4997582;28;20052;-79
2023/08/31 06:35:40;;;;;;;3.00;0.63;;;;;;;;;;5014455;28;20069;-79
2023/08/31 06:38:06;;;;;;;4.07;1.27;;;;;;;;;;5013008;28;20061;-78
2023/08/31 06:40:33;;;;;;;5.40;0.82;;;;;;;;;;4995902;28;20076;-78
2023/08/31 06:42:59;;;;;;;1.75;0.50;;;;;;;;;;5014564;28;20045;-77
2023/08/31 06:45:25;;;;;;;3.63;0.50;;;;;;;;;;5018899;28;20644;-77
2023/08/31 06:47:51;;;;;;;2.97;0.80;;;;;;;;;;5007990;28;20152;-77
2023/08/31 06:50:17;;;;;;;3.80;0.60;;;;;;;;;;5029535;28;20045;-77
2023/08/31 06:52:46;;;;;;;2.90;0.55;;;;;;;;;;5026140;28;20105;-79
2023/08/31 06:55:12;;;;;;;1.27;0.52;;;;;;;;;;5005420;28;20049;-83
2023/08/31 06:57:38;;;;;;;2.08;0.30;;;;;;;;;;5020160;28;20064;-81
2023/08/31 07:00:06;;;;;;;4.30;0.40;;;24.40;96.40;;;;;;5018165;28;20053;-81
2023/08/31 07:02:34;;;;;;;0.80;0.28;;;;;;;;;;5014527;28;20065;-79
2023/08/31 07:05:00;;;;;;;3.25;0.63;;;;;;;;;;5016196;28;20053;-80
2023/08/31 07:07:26;;;;;;;2.92;0.88;;;;;;;;;;5001216;28;20045;-79
2023/08/31 07:09:54;;;;;;;2.40;0.22;;;;;;;;;;5016924;28;20045;-82
2023/08/31 07:12:20;;;;;;;1.35;0.28;;;;;;;;;;5000276;28;20080;-81
2023/08/31 07:14:46;;;;;;;5.50;0.45;;;;;;;;;;5015972;28;20037;-79
2023/08/31 07:17:12;;;;;;;2.95;0.40;;;;;;;;;;5017049;28;20161;-77
2023/08/31 07:19:39;;;;;;;4.78;0.70;;;;;;;;;;5003054;28;20691;-81
2023/08/31 07:22:06;;;;;;;3.53;0.90;;;17.40;99.90;;;;;;4989694;28;20068;-78
2023/08/31 07:24:34;;;;;;;4.60;0.30;;;;;;;;;;5001447;28;20744;-77
2023/08/31 07:27:04;;;;;;;1.70;0.20;;;17.00;99.90;;;;;;5002773;28;20085;-82
2023/08/31 07:29:30;;;;;;;2.65;0.30;;;;;;;;;;5001150;28;20054;-82
2023/08/31 07:31:57;;;;;;;3.22;0.50;;;;;;;;;;4990933;28;20045;-80
2023/08/31 07:34:23;;;;;;;2.25;0.35;;;;;;;;;;5002888;28;20050;-79
2023/08/31 07:36:49;;;;;;;3.65;0.30;;;;;;;;;;4991984;28;20081;-81
2023/08/31 07:39:17;;;;;;;2.88;0.88;;;;;;;;;;4997336;28;20050;-78
2023/08/31 07:41:43;;;;;;;5.75;0.30;;;;;;;;;;4980130;28;20579;-77
2023/08/31 07:44:10;;;;;;;4.07;0.30;;;;;;;;;;4998450;28;20085;-78
2023/08/31 07:46:36;;;;;;;7.05;0.57;;;;;;;;;;4997902;28;20057;-78
2023/08/31 07:49:02;;;;;;;2.90;0.40;;;;;;;;;;4998358;28;20054;-78
2023/08/31 07:51:29;;;;;;;5.50;0.50;;;;;;;;;;5001858;28;21090;-79
2023/08/31 07:53:55;;;;;;;3.35;0.47;;;;;;;;;;4996654;28;20046;-74
2023/08/31 07:56:23;;;;;;;5.35;0.95;;;15.70;99.90;;;;;;4979342;28;20061;-77
2023/08/31 07:58:50;;;;;;;2.92;0.20;;;;;;;;;;4979040;28;20060;-76
2023/08/31 08:01:17;;;;;;;1.95;0.40;;;;;;;;;;5004220;28;20079;-79
2023/08/31 08:03:43;;;;;;;4.10;0.30;;;;;;;;;;4995889;28;20171;-76
2023/08/31 08:06:09;;;;;;;4.00;0.45;;;;;;;;;;4995976;28;20060;-74
2023/08/31 08:08:35;;;;;;;4.72;0.47;;;;;;;;;;4990572;28;20154;-76
2023/08/31 08:11:02;;;;;;;2.80;0.22;;;;;;;;;;4994411;28;20126;-80
2023/08/31 08:13:28;;;;;;;1.80;0.30;;;17.20;99.90;;;;;;4980622;28;20054;-77
2023/08/31 08:15:55;;;;;;;6.00;0.40;;;;;;;;;;4980008;28;20053;-80
2023/08/31 08:18:21;;;;;;;4.10;0.75;;;;;;;;;;4975018;28;20058;-78
2023/08/31 08:20:53;;;;;;;3.05;0.25;;;19.90;99.90;;;;;;5000273;28;20077;-82
2023/08/31 08:23:19;;;;;;;2.90;0.20;;;21.00;99.90;;;;;;4994497;28;20570;-81
2023/08/31 08:25:45;;;;;;;3.20;0.95;;;;;;;;;;4993632;28;20080;-79
2023/08/31 08:28:11;;;;;;;1.90;0.20;;;;;;;;;;5001375;28;20060;-77
2023/08/31 08:30:38;;;;;;;3.13;0.35;;;;;;;;;;5005571;28;20045;-80
2023/08/31 08:33:04;;;;;;;3.08;0.40;;;;;;;;;;4997735;28;20037;-79
2023/08/31 08:35:30;;;;;;;3.85;0.20;;;;;;;;;;4994797;28;20049;-76
2023/08/31 08:37:56;;;;;;;3.15;0.43;;;;;;;;;;4996240;28;20352;-76
2023/08/31 08:40:22;;;;;;;1.80;0.15;;;;;;;;;;4996174;28;20149;-77
2023/08/31 08:42:53;;;;;;;4.32;0.30;;;24.00;97.10;;;;;;4997586;28;20054;-77
2023/08/31 08:45:23;;;;;;;5.03;0.40;;;23.90;97.10;;;;;;4995355;28;20085;-77
2023/08/31 08:47:51;;;;;;;1.42;0.20;;;;;;;;;;5000251;28;20045;-76
2023/08/31 08:50:17;;;;;;;1.75;0.40;;;24.20;96.70;;;;;;4983723;28;20478;-76
2023/08/31 08:52:44;;;;;;;2.10;0.20;;;;;;;;;;5002284;28;20041;-76
2023/08/31 08:55:10;;;;;;;3.08;0.32;;;;;;;;;;4984731;28;20046;-75
2023/08/31 08:57:38;;;;;;;2.90;0.30;;;;;;;;;;4983077;28;20075;-75
2023/08/31 09:00:04;;;;;;;2.55;0.20;;;24.40;96.00;;;;;;4960881;28;20058;-77
2023/08/31 09:02:31;;;;;;;1.67;0.30;;;;;;;;;;4974165;28;20491;-81
2023/08/31 09:04:57;;;;;;;2.72;0.20;;;;;;;;;;4982314;28;20052;-72
2023/08/31 09:07:24;;;;;;;2.22;0.10;;;24.50;95.70;;;;;;4950824;28;20049;-75
2023/08/31 09:09:54;;;;;;;3.15;0.20;;;24.50;95.10;;;;;;4971527;28;20054;-74
2023/08/31 09:12:24;;;;;;;1.83;0.20;;;23.90;94.90;;;;;;5001581;28;20090;-74
2023/08/31 09:15:16;;;;;;;2.47;0.10;;;23.50;95.20;;;;;;4966208;28;20038;-74
2023/08/31 09:17:52;;;;;;;3.47;0.20;;;23.50;95.90;;;;;;4980248;28;20053;-75
2023/08/31 09:20:26;;;;;;;0.55;0.20;;;23.80;96.20;;;;;;4970759;28;20044;-75
2023/08/31 09:22:56;;;;;;;1.70;0.30;;;24.20;96.00;;;;;;4991479;28;20049;-74
2023/08/31 09:25:29;;;;;;;1.90;0.10;;;24.60;95.70;;;;;;5014080;28;20053;-75
2023/08/31 09:27:59;;;;;;;2.72;0.30;;;;;;;;;;5020377;28;20160;-74
2023/08/31 09:30:25;;;;;;;0.98;0.10;;;;;;;;;;5003669;28;20057;-73
2023/08/31 09:33:10;;;;;;;2.55;0.10;;;24.70;94.50;;;;;;4992947;28;20400;-73
2023/08/31 09:35:50;;;;;;;2.45;0.10;;;24.20;96.70;;;;;;4985325;28;20056;-74
2023/08/31 09:38:16;;;;;;;1.52;0.10;;;;;;;;;;4983274;28;20052;-73
2023/08/31 09:40:42;;;;;;;2.42;0.47;;;23.20;94.30;;;;;;5017777;28;20274;-73
2023/08/31 09:43:09;;;;;;;1.05;0.10;;;21.40;94.70;;;;;;4984668;28;20049;-75
2023/08/31 09:45:54;;;;;;;2.78;0.10;;;21.10;95.60;;;;;;4982009;28;20071;-73
2023/08/31 09:48:23;;;;;;;4.22;0.22;;;20.00;96.80;;;;;;4999153;28;20056;-82
2023/08/31 09:50:52;;;;;;;7.45;0.45;;;20.90;98.60;;;;;;5013691;28;20122;-78
2023/08/31 09:53:20;;;;;;;8.23;1.08;;;18.40;99.40;;;;;;4992255;28;20917;-82
2023/08/31 09:55:50;;;;;;;2.70;0.20;;;17.60;99.90;;;;;;4981472;28;20068;-81
2023/08/31 09:58:20;;;;;;;6.60;0.40;;;17.00;99.90;;;;;;5006738;28;20725;-84
2023/08/31 10:00:46;;;;;;;1.48;0.13;;;16.50;99.90;;;;;;4992079;28;20046;-78
2023/08/31 10:03:15;;;;;;;1.20;0.10;;;;;;;;;;5024245;28;20430;-81
2023/08/31 10:05:46;;;;;;;1.08;0.10;;;16.00;99.90;;;;;;5021429;28;20156;-79
2023/08/31 10:08:13;;;;;;;6.25;0.25;;;;;;;;;;4992561;28;20055;-80
2023/08/31 10:10:39;;;;;;;2.00;0.10;;;16.00;99.90;;;;;;5013590;28;20346;-80
2023/08/31 10:13:06;;;;;;;1.65;0.20;;;;;;;;;;4976128;28;20059;-81
2023/08/31 10:15:35;;;;;;;0.80;0.10;;;17.00;99.90;;;;;;4994939;28;20450;-78
2023/08/31 10:18:02;;;;;;;2.30;0.30;;;;;;;;;;4994089;28;20064;-79
2023/08/31 10:20:33;;;;;;;1.98;0.15;;;18.60;99.90;;;;;;5003955;28;20057;-83
2023/08/31 10:23:06;;;;;;;;;;;20.00;99.90;;;;;;5003518;28;20053;-78
2023/08/31 10:25:55;;;;;;;1.38;0.22;;;19.80;99.90;;;;;;4971360;28;19932;-78
2023/08/31 10:28:25;;;;;;;1.02;0.10;;;20.30;99.90;;;;;;5024229;28;20037;-78
2023/08/31 10:31:09;;;;;;;2.22;0.20;;;20.70;99.90;;;;;;4985862;28;20060;-75
2023/08/31 10:33:58;;;;;;;2.17;0.10;;;20.90;99.90;;;;;;4986175;28;20049;-74
2023/08/31 10:36:44;;;;;;;1.27;0.10;;;21.30;99.90;;;;;;4972681;28;20514;-74
2023/08/31 10:39:19;;;;;;;1.35;0.30;;;21.40;99.90;;;;;;5021526;28;20046;-78
2023/08/31 10:41:55;;;;;;;0.65;0.20;;;21.60;99.90;;;;;;4987127;28;20049;-75
2023/08/31 10:44:23;;;;;;;1.10;0.10;;;21.90;99.90;;;;;;4968306;28;20545;-75
2023/08/31 10:46:50;;;;;;;3.08;0.20;;;22.00;99.90;;;;;;5006081;28;20621;-77
2023/08/31 10:49:18;;;;;;;1.60;0.17;;;21.90;99.90;;;;;;5018561;28;20041;-79
2023/08/31 10:51:50;;;;;;;4.00;0.20;;;21.70;99.90;;;;;;4989897;28;20179;-78
2023/08/31 10:54:18;;;;;;;0.63;0.20;;;21.40;99.90;;;;;;4992879;28;20041;-75
2023/08/31 10:56:56;;;;;;;1.25;0.20;;;17.80;99.90;;;;;;4974322;28;20064;-75
2023/08/31 10:59:24;;;;;;;0.88;0.13;;;21.30;99.90;;;;;;4995205;28;20391;-78
2023/08/31 11:01:57;;;;;;;1.00;0.10;;;21.00;99.90;;;;;;4989283;28;20326;-77
2023/08/31 11:04:24;;;;;;;3.13;0.13;;;20.90;99.90;;;;;;4987547;28;20096;-79
2023/08/31 11:07:23;;;;;;;2.30;0.10;;;20.70;99.90;;;;;;4985185;28;20052;-80
2023/08/31 11:09:49;;;;;;;0.63;0.10;;;;;;;;;;5006747;28;20067;-77
2023/08/31 11:12:22;;;;;;;2.33;0.20;;;20.20;99.90;;;;;;5001215;28;20053;-79
2023/08/31 11:14:48;;;;;;;0.75;0.10;;;;;;;;;;4989246;28;20720;-77
2023/08/31 11:17:14;;;;;;;1.88;0.10;;;;;;;;;;5007594;28;20049;-78
2023/08/31 11:19:41;;;;;;;1.05;0.13;;;19.30;99.90;;;;;;5007049;28;20045;-78
2023/08/31 11:22:09;;;;;;;1.83;0.20;;;;;;;;;;5006151;28;20064;-79
2023/08/31 11:24:35;;;;;;;1.60;0.10;;;;;;;;;;4988457;28;20049;-78
2023/08/31 11:27:03;;;;;;;1.60;0.20;;;;;;;;;;4993527;28;20061;-78
2023/08/31 11:29:29;;;;;;;0.57;0.10;;;;;;;;;;5005490;28;20052;-83
2023/08/31 11:32:02;;;;;;;1.42;0.10;;;20.00;99.90;;;;;;5004920;28;20229;-79
2023/08/31 11:34:28;;;;;;;0.93;0.20;;;;;;;;;;5001269;28;20041;-77
2023/08/31 11:36:54;;;;;;;2.47;0.20;;;;;;;;;;5003712;28;20060;-75
2023/08/31 11:39:21;;;;;;;1.08;0.20;;;;;;;;;;4999933;28;20049;-74
2023/08/31 11:41:49;;;;;;;4.45;0.68;;;;;;;;;;4999195;28;20045;-77
2023/08/31 11:44:16;;;;;;;1.52;0.20;;;20.40;99.90;;;;;;4995638;28;21021;-75
2023/08/31 11:46:44;;;;;;;3.03;0.15;;;20.40;99.90;;;;;;5008153;28;20131;-73
2023/08/31 11:49:20;;;;;;;2.25;0.15;;;;;;;;;;5017483;28;20076;-73
2023/08/31 11:51:47;;;;;;;1.35;0.10;;;20.40;99.90;;;;;;4982474;28;20068;-74
2023/08/31 11:54:13;;;;;;;2.65;0.20;;;;;;;;;;5006378;28;20053;-75
2023/08/31 11:56:43;;;;;;;3.13;0.82;;;20.40;99.90;;;;;;4982704;28;20049;-71
2023/08/31 11:59:15;;;;;;;1.35;0.10;;;20.40;99.90;;;;;;4999564;28;20061;-73
2023/08/31 12:01:46;;;;;;;;;;;20.60;99.90;;;;;;5007525;28;20123;-73
2023/08/31 12:04:19;;;;;;;0.88;0.10;;;20.70;99.90;;;;;;5005192;28;19979;-75
2023/08/31 12:06:51;;;;;;;2.35;0.10;;;20.50;99.90;;;;;;5004454;28;20064;-75
2023/08/31 12:09:17;;;;;;;2.00;0.10;;;;;;;;;;5000787;28;20057;-74
2023/08/31 12:11:51;;;;;;;2.70;0.20;;;20.40;99.90;;;;;;5005086;28;20225;-78
2023/08/31 12:14:27;;;;;;;0.95;0.10;;;20.40;99.90;;;;;;5027017;28;20149;-74
2023/08/31 12:17:00;;;;;;;0.70;0.10;;;20.30;99.90;;;;;;5016366;28;20049;-74
2023/08/31 12:19:35;;;;;;;1.00;0.05;;;20.30;99.90;;;;;;5000910;28;20087;-75
2023/08/31 12:22:02;;;;;;;2.47;0.13;;;;;;;;;;5027039;28;20816;-74
2023/08/31 12:24:28;;;;;;;5.07;0.15;;;;;;;;;;5014827;28;20053;-76
2023/08/31 12:26:54;;;;;;;1.67;0.10;;;;;;;;;;5015835;28;20051;-75
2023/08/31 12:29:21;;;;;;;1.83;0.10;;;;;;;;;;4999476;28;20057;-74
2023/08/31 12:31:47;;;;;;;2.17;0.15;;;;;;;;;;4998039;28;20056;-77
2023/08/31 12:34:13;;;;;;;2.80;0.10;;;;;;;;;;4997154;28;20755;-72
2023/08/31 12:36:42;;;;;;;1.90;0.10;;;;;;;;;;5014074;28;20050;-72
2023/08/31 12:39:12;;;;;;;2.17;0.20;;;20.00;99.90;;;;;;5014543;28;20045;-74
2023/08/31 12:41:38;;;;;;;3.35;0.20;;;;;;;;;;4997831;28;20103;-78
2023/08/31 12:44:04;;;;;;;2.17;0.10;;;;;;;;;;5046436;28;20053;-74
2023/08/31 12:46:31;;;;;;;1.13;0.10;;;19.80;99.90;;;;;;5030950;28;20056;-72
2023/08/31 12:48:57;;;;;;;1.30;0.17;;;;;;;;;;5014363;28;20049;-73
2023/08/31 12:51:23;;;;;;;1.95;0.17;;;;;;;;;;4998465;28;20064;-75
2023/08/31 12:53:49;;;;;;;3.38;0.43;;;;;;;;;;5014875;28;20436;-75
2023/08/31 12:56:21;;;;;;;1.00;0.10;;;;;;;;;;5048551;28;20053;-74
2023/08/31 12:58:52;;;;;;;4.00;0.65;;;18.50;99.90;;;;;;5015741;28;20091;-82
2023/08/31 13:01:19;;;;;;;1.95;0.25;;;17.80;99.90;;;;;;5016052;28;20053;-81
2023/08/31 13:03:46;;;;;;;3.72;0.20;;;;;;;;;;5015949;28;20451;-79
2023/08/31 13:06:13;;;;;;;1.40;0.10;;;;;;;;;;5013823;28;20064;-75
2023/08/31 13:08:39;;;;;;;1.60;0.20;;;;;;;;;;5046240;28;20382;-77
2023/08/31 13:11:06;;;;;;;2.42;0.20;;;;;;;;;;4997167;28;20053;-78
2023/08/31 13:13:32;;;;;;;1.60;0.20;;;;;;;;;;5013463;28;20057;-78
2023/08/31 13:15:58;;;;;;;2.88;0.30;;;;;;;;;;5011910;28;20048;-76
2023/08/31 13:18:25;;;;;;;1.02;0.25;;;;;;;;;;5014513;28;20053;-75
2023/08/31 13:20:54;;;;;;;1.38;0.20;;;16.90;99.90;;;;;;5014702;28;20102;-76
2023/08/31 13:23:20;;;;;;;1.95;0.30;;;;;;;;;;5048086;28;20064;-77
2023/08/31 13:25:47;;;;;;;3.97;0.40;;;;;;;;;;5014170;28;20124;-76
2023/08/31 13:28:13;;;;;;;2.45;0.20;;;;;;;;;;4998186;28;20128;-77
2023/08/31 13:30:39;;;;;;;2.95;0.30;;;;;;;;;;5046601;28;20103;-75
2023/08/31 13:33:06;;;;;;;4.57;0.30;;;;;;;;;;5008623;28;20447;-75
2023/08/31 13:35:32;;;;;;;2.75;0.50;;;;;;;;;;5014015;28;20083;-73
2023/08/31 13:37:59;;;;;;;4.93;0.30;;;;;;;;;;5014098;28;20148;-75
2023/08/31 13:40:25;;;;;;;1.85;0.38;;;;;;;;;;5013732;28;20052;-79
2023/08/31 13:43:02;;;;;;;3.08;0.28;;;18.10;99.90;;;;;;5014401;28;20060;-75
2023/08/31 13:45:32;;;;;;;4.05;0.30;;;18.20;99.90;;;;;;5009470;28;20058;-76
2023/08/31 13:48:00;;;;;;;4.68;0.30;;;18.30;99.90;;;;;;5013661;28;20050;-75
2023/08/31 13:50:26;;;;;;;2.50;0.30;;;18.40;99.90;;;;;;5014037;28;20053;-75
2023/08/31 13:52:53;;;;;;;4.05;0.30;;;;;;;;;;5047066;28;20081;-75
2023/08/31 13:55:19;;;;;;;4.53;0.50;;;;;;;;;;4996589;28;20125;-74
2023/08/31 13:57:45;;;;;;;3.35;0.30;;;;;;;;;;5012862;28;20107;-74
2023/08/31 14:00:12;;;;;;;3.28;0.50;;;19.10;99.90;;;;;;5012624;28;20056;-73
2023/08/31 14:02:38;;;;;;;2.85;0.40;;;;;;;;;;5012944;28;20041;-72